sensor_id;sensor_type;location;lat;lon;timestamp;P1;durP1;ratioP1;P2;durP2;ratioP2
13032;SDS011;6583;42.632;23.298;2023-12-28T00:02:07;1.80;;;0.90;;
13032;SDS011;6583;42.632;23.298;2023-12-28T00:04:34;1.77;;;1.03;;
13032;SDS011;6583;42.632;23.298;2023-12-28T00:07:01;2.13;;;1.17;;
13032;SDS011;6583;42.632;23.298;2023-12-28T00:09:28;1.37;;;1.10;;
13032;SDS011;6583;42.632;23.298;2023-12-28T00:11:55;1.50;;;1.10;;
13032;SDS011;6583;42.632;23.298;2023-12-28T00:14:21;1.93;;;1.10;;
13032;SDS011;6583;42.632;23.298;2023-12-28T00:16:49;2.93;;;1.20;;
13032;SDS011;6583;42.632;23.298;2023-12-28T00:19:16;1.10;;;1.00;;
13032;SDS011;6583;42.632;23.298;2023-12-28T00:21:44;0.97;;;0.87;;
13032;SDS011;6583;42.632;23.298;2023-12-28T00:24:11;1.20;;;0.90;;
13032;SDS011;6583;42.632;23.298;2023-12-28T00:26:38;0.93;;;0.90;;
13032;SDS011;6583;42.632;23.298;2023-12-28T00:29:04;1.03;;;0.90;;
13032;SDS011;6583;42.632;23.298;2023-12-28T00:31:31;1.17;;;1.00;;
13032;SDS011;6583;42.632;23.298;2023-12-28T00:33:59;2.03;;;0.90;;
13032;SDS011;6583;42.632;23.298;2023-12-28T00:36:25;1.17;;;1.07;;
13032;SDS011;6583;42.632;23.298;2023-12-28T00:38:52;1.20;;;1.10;;
13032;SDS011;6583;42.632;23.298;2023-12-28T00:41:19;1.20;;;1.00;;
13032;SDS011;6583;42.632;23.298;2023-12-28T00:43:45;2.53;;;1.40;;
13032;SDS011;6583;42.632;23.298;2023-12-28T00:46:12;2.27;;;1.50;;
13032;SDS011;6583;42.632;23.298;2023-12-28T00:48:39;2.07;;;1.30;;
13032;SDS011;6583;42.632;23.298;2023-12-28T00:51:07;2.37;;;1.50;;
13032;SDS011;6583;42.632;23.298;2023-12-28T00:53:33;1.40;;;0.97;;
13032;SDS011;6583;42.632;23.298;2023-12-28T00:56:00;0.80;;;0.80;;
13032;SDS011;6583;42.632;23.298;2023-12-28T00:58:27;2.27;;;1.40;;
13032;SDS011;6583;42.632;23.298;2023-12-28T01:00:53;1.70;;;1.57;;
13032;SDS011;6583;42.632;23.298;2023-12-28T01:03:21;1.77;;;1.50;;
13032;SDS011;6583;42.632;23.298;2023-12-28T01:05:49;2.80;;;1.60;;
13032;SDS011;6583;42.632;23.298;2023-12-28T01:08:19;2.93;;;1.67;;
13032;SDS011;6583;42.632;23.298;2023-12-28T01:10:45;1.93;;;1.40;;
13032;SDS011;6583;42.632;23.298;2023-12-28T01:13:12;3.33;;;1.73;;
13032;SDS011;6583;42.632;23.298;2023-12-28T01:15:39;1.43;;;1.33;;
13032;SDS011;6583;42.632;23.298;2023-12-28T01:18:05;1.73;;;1.50;;
13032;SDS011;6583;42.632;23.298;2023-12-28T01:20:32;1.60;;;1.40;;
13032;SDS011;6583;42.632;23.298;2023-12-28T01:22:59;1.60;;;1.50;;
13032;SDS011;6583;42.632;23.298;2023-12-28T01:25:27;1.77;;;1.50;;
13032;SDS011;6583;42.632;23.298;2023-12-28T01:27:54;3.47;;;2.20;;
13032;SDS011;6583;42.632;23.298;2023-12-28T01:30:21;3.47;;;2.50;;
13032;SDS011;6583;42.632;23.298;2023-12-28T01:32:46;4.20;;;3.13;;
13032;SDS011;6583;42.632;23.298;2023-12-28T01:35:13;3.90;;;2.00;;
13032;SDS011;6583;42.632;23.298;2023-12-28T01:37:40;4.40;;;3.00;;
13032;SDS011;6583;42.632;23.298;2023-12-28T01:40:07;3.27;;;2.47;;
13032;SDS011;6583;42.632;23.298;2023-12-28T01:42:36;2.60;;;1.67;;
13032;SDS011;6583;42.632;23.298;2023-12-28T01:45:04;2.17;;;1.40;;
13032;SDS011;6583;42.632;23.298;2023-12-28T01:47:31;1.10;;;1.00;;
13032;SDS011;6583;42.632;23.298;2023-12-28T01:49:58;1.47;;;1.17;;
13032;SDS011;6583;42.632;23.298;2023-12-28T01:52:26;1.67;;;1.20;;
13032;SDS011;6583;42.632;23.298;2023-12-28T01:54:53;0.90;;;0.90;;
13032;SDS011;6583;42.632;23.298;2023-12-28T01:57:20;1.13;;;0.90;;
13032;SDS011;6583;42.632;23.298;2023-12-28T01:59:48;0.80;;;0.80;;
13032;SDS011;6583;42.632;23.298;2023-12-28T02:02:15;0.83;;;0.80;;
13032;SDS011;6583;42.632;23.298;2023-12-28T02:04:42;2.07;;;1.20;;
13032;SDS011;6583;42.632;23.298;2023-12-28T02:07:09;1.30;;;0.90;;
13032;SDS011;6583;42.632;23.298;2023-12-28T02:09:37;1.67;;;1.50;;
13032;SDS011;6583;42.632;23.298;2023-12-28T02:12:05;1.20;;;0.87;;
13032;SDS011;6583;42.632;23.298;2023-12-28T02:14:31;1.20;;;0.70;;
13032;SDS011;6583;42.632;23.298;2023-12-28T02:17:03;1.47;;;1.20;;
13032;SDS011;6583;42.632;23.298;2023-12-28T02:19:36;3.27;;;1.20;;
13032;SDS011;6583;42.632;23.298;2023-12-28T02:22:08;2.50;;;0.90;;
13032;SDS011;6583;42.632;23.298;2023-12-28T02:27:32;1.13;;;1.00;;
13032;SDS011;6583;42.632;23.298;2023-12-28T02:30:00;1.73;;;0.80;;
13032;SDS011;6583;42.632;23.298;2023-12-28T02:32:31;1.40;;;0.70;;
13032;SDS011;6583;42.632;23.298;2023-12-28T02:35:06;1.33;;;0.73;;
13032;SDS011;6583;42.632;23.298;2023-12-28T02:37:43;0.70;;;0.67;;
13032;SDS011;6583;42.632;23.298;2023-12-28T02:40:12;1.40;;;0.90;;
13032;SDS011;6583;42.632;23.298;2023-12-28T02:42:43;1.50;;;1.10;;
13032;SDS011;6583;42.632;23.298;2023-12-28T02:45:09;3.60;;;2.47;;
13032;SDS011;6583;42.632;23.298;2023-12-28T02:47:36;1.67;;;1.23;;
13032;SDS011;6583;42.632;23.298;2023-12-28T02:50:03;1.60;;;0.90;;
13032;SDS011;6583;42.632;23.298;2023-12-28T02:52:31;1.73;;;1.10;;
13032;SDS011;6583;42.632;23.298;2023-12-28T02:54:58;1.23;;;1.10;;
13032;SDS011;6583;42.632;23.298;2023-12-28T02:57:24;1.10;;;1.00;;
13032;SDS011;6583;42.632;23.298;2023-12-28T02:59:52;1.53;;;1.00;;
13032;SDS011;6583;42.632;23.298;2023-12-28T03:02:19;1.20;;;1.00;;
13032;SDS011;6583;42.632;23.298;2023-12-28T03:04:46;1.87;;;1.00;;
13032;SDS011;6583;42.632;23.298;2023-12-28T03:07:12;1.77;;;0.90;;
13032;SDS011;6583;42.632;23.298;2023-12-28T03:09:39;2.20;;;1.27;;
13032;SDS011;6583;42.632;23.298;2023-12-28T03:12:06;2.40;;;1.53;;
13032;SDS011;6583;42.632;23.298;2023-12-28T03:14:33;2.27;;;1.60;;
13032;SDS011;6583;42.632;23.298;2023-12-28T03:17:01;1.90;;;1.20;;
13032;SDS011;6583;42.632;23.298;2023-12-28T03:19:27;2.23;;;1.30;;
13032;SDS011;6583;42.632;23.298;2023-12-28T03:21:54;1.60;;;1.27;;
13032;SDS011;6583;42.632;23.298;2023-12-28T03:24:21;1.30;;;1.00;;
13032;SDS011;6583;42.632;23.298;2023-12-28T03:26:47;1.43;;;1.00;;
13032;SDS011;6583;42.632;23.298;2023-12-28T03:29:14;1.27;;;1.00;;
13032;SDS011;6583;42.632;23.298;2023-12-28T03:31:40;1.40;;;1.30;;
13032;SDS011;6583;42.632;23.298;2023-12-28T03:34:09;2.90;;;1.93;;
13032;SDS011;6583;42.632;23.298;2023-12-28T03:36:35;2.60;;;1.47;;
13032;SDS011;6583;42.632;23.298;2023-12-28T03:39:02;2.47;;;2.00;;
13032;SDS011;6583;42.632;23.298;2023-12-28T03:41:30;3.00;;;2.50;;
13032;SDS011;6583;42.632;23.298;2023-12-28T03:43:57;4.80;;;3.20;;
13032;SDS011;6583;42.632;23.298;2023-12-28T03:46:23;5.53;;;3.80;;
13032;SDS011;6583;42.632;23.298;2023-12-28T03:48:50;6.27;;;4.40;;
13032;SDS011;6583;42.632;23.298;2023-12-28T03:51:18;3.60;;;2.43;;
13032;SDS011;6583;42.632;23.298;2023-12-28T03:53:45;4.73;;;2.90;;
13032;SDS011;6583;42.632;23.298;2023-12-28T03:56:18;6.63;;;4.00;;
13032;SDS011;6583;42.632;23.298;2023-12-28T03:58:45;4.73;;;3.73;;
13032;SDS011;6583;42.632;23.298;2023-12-28T04:01:12;5.60;;;3.70;;
13032;SDS011;6583;42.632;23.298;2023-12-28T04:03:38;4.37;;;3.73;;
13032;SDS011;6583;42.632;23.298;2023-12-28T04:06:05;4.83;;;3.60;;
13032;SDS011;6583;42.632;23.298;2023-12-28T04:08:34;3.43;;;2.67;;
13032;SDS011;6583;42.632;23.298;2023-12-28T04:11:01;5.67;;;3.67;;
13032;SDS011;6583;42.632;23.298;2023-12-28T04:13:27;3.00;;;2.70;;
13032;SDS011;6583;42.632;23.298;2023-12-28T04:15:54;3.73;;;2.57;;
13032;SDS011;6583;42.632;23.298;2023-12-28T04:18:20;3.57;;;2.73;;
13032;SDS011;6583;42.632;23.298;2023-12-28T04:20:47;4.37;;;2.80;;
13032;SDS011;6583;42.632;23.298;2023-12-28T04:23:14;3.60;;;2.60;;
13032;SDS011;6583;42.632;23.298;2023-12-28T04:25:43;3.57;;;2.33;;
13032;SDS011;6583;42.632;23.298;2023-12-28T04:28:09;2.73;;;2.30;;
13032;SDS011;6583;42.632;23.298;2023-12-28T04:30:36;2.73;;;2.20;;
13032;SDS011;6583;42.632;23.298;2023-12-28T04:33:03;2.50;;;2.27;;
13032;SDS011;6583;42.632;23.298;2023-12-28T04:35:30;3.53;;;2.30;;
13032;SDS011;6583;42.632;23.298;2023-12-28T04:37:57;3.43;;;2.37;;
13032;SDS011;6583;42.632;23.298;2023-12-28T04:40:23;3.67;;;2.50;;
13032;SDS011;6583;42.632;23.298;2023-12-28T04:42:51;3.80;;;3.37;;
13032;SDS011;6583;42.632;23.298;2023-12-28T04:45:18;5.63;;;3.50;;
13032;SDS011;6583;42.632;23.298;2023-12-28T04:47:45;6.07;;;4.37;;
13032;SDS011;6583;42.632;23.298;2023-12-28T04:50:11;3.47;;;3.03;;
13032;SDS011;6583;42.632;23.298;2023-12-28T04:52:38;3.63;;;2.70;;
13032;SDS011;6583;42.632;23.298;2023-12-28T04:55:06;4.20;;;2.60;;
13032;SDS011;6583;42.632;23.298;2023-12-28T04:57:33;3.03;;;2.70;;
13032;SDS011;6583;42.632;23.298;2023-12-28T05:00:01;4.60;;;2.70;;
13032;SDS011;6583;42.632;23.298;2023-12-28T05:02:28;4.87;;;2.80;;
13032;SDS011;6583;42.632;23.298;2023-12-28T05:04:55;3.07;;;2.20;;
13032;SDS011;6583;42.632;23.298;2023-12-28T05:07:21;2.30;;;2.10;;
13032;SDS011;6583;42.632;23.298;2023-12-28T05:09:48;2.60;;;1.77;;
13032;SDS011;6583;42.632;23.298;2023-12-28T05:12:15;1.70;;;1.60;;
13032;SDS011;6583;42.632;23.298;2023-12-28T05:14:41;2.73;;;1.80;;
13032;SDS011;6583;42.632;23.298;2023-12-28T05:17:09;1.70;;;1.47;;
13032;SDS011;6583;42.632;23.298;2023-12-28T05:19:36;2.00;;;1.63;;
13032;SDS011;6583;42.632;23.298;2023-12-28T05:22:02;2.80;;;1.60;;
13032;SDS011;6583;42.632;23.298;2023-12-28T05:24:31;1.90;;;1.53;;
13032;SDS011;6583;42.632;23.298;2023-12-28T05:26:58;2.00;;;1.50;;
13032;SDS011;6583;42.632;23.298;2023-12-28T05:29:25;2.83;;;1.80;;
13032;SDS011;6583;42.632;23.298;2023-12-28T05:31:51;2.50;;;1.87;;
13032;SDS011;6583;42.632;23.298;2023-12-28T05:34:19;2.13;;;1.80;;
13032;SDS011;6583;42.632;23.298;2023-12-28T05:36:46;4.93;;;2.23;;
13032;SDS011;6583;42.632;23.298;2023-12-28T05:39:13;2.03;;;1.80;;
13032;SDS011;6583;42.632;23.298;2023-12-28T05:41:39;4.97;;;2.10;;
13032;SDS011;6583;42.632;23.298;2023-12-28T05:44:06;3.50;;;2.20;;
13032;SDS011;6583;42.632;23.298;2023-12-28T05:46:32;2.07;;;1.70;;
13032;SDS011;6583;42.632;23.298;2023-12-28T05:48:59;3.23;;;1.93;;
13032;SDS011;6583;42.632;23.298;2023-12-28T05:51:27;3.20;;;1.90;;
13032;SDS011;6583;42.632;23.298;2023-12-28T05:53:54;2.53;;;1.97;;
13032;SDS011;6583;42.632;23.298;2023-12-28T05:56:20;3.20;;;2.00;;
13032;SDS011;6583;42.632;23.298;2023-12-28T05:58:47;2.83;;;1.77;;
13032;SDS011;6583;42.632;23.298;2023-12-28T06:01:14;3.83;;;2.13;;
13032;SDS011;6583;42.632;23.298;2023-12-28T06:03:40;2.80;;;2.40;;
13032;SDS011;6583;42.632;23.298;2023-12-28T06:06:07;2.27;;;2.03;;
13032;SDS011;6583;42.632;23.298;2023-12-28T06:08:35;2.47;;;2.00;;
13032;SDS011;6583;42.632;23.298;2023-12-28T06:11:02;2.47;;;1.97;;
13032;SDS011;6583;42.632;23.298;2023-12-28T06:13:28;2.93;;;2.17;;
13032;SDS011;6583;42.632;23.298;2023-12-28T06:15:55;2.47;;;2.00;;
13032;SDS011;6583;42.632;23.298;2023-12-28T06:18:22;2.77;;;2.07;;
13032;SDS011;6583;42.632;23.298;2023-12-28T06:20:48;2.77;;;2.00;;
13032;SDS011;6583;42.632;23.298;2023-12-28T06:23:15;2.40;;;1.97;;
13032;SDS011;6583;42.632;23.298;2023-12-28T06:25:43;1.97;;;1.73;;
13032;SDS011;6583;42.632;23.298;2023-12-28T06:28:09;2.50;;;1.70;;
13032;SDS011;6583;42.632;23.298;2023-12-28T06:30:36;2.50;;;1.60;;
13032;SDS011;6583;42.632;23.298;2023-12-28T06:33:04;1.60;;;1.50;;
13032;SDS011;6583;42.632;23.298;2023-12-28T06:35:31;2.17;;;1.70;;
13032;SDS011;6583;42.632;23.298;2023-12-28T06:37:58;2.20;;;1.40;;
13032;SDS011;6583;42.632;23.298;2023-12-28T06:40:24;1.77;;;1.23;;
13032;SDS011;6583;42.632;23.298;2023-12-28T06:42:52;1.40;;;1.00;;
13032;SDS011;6583;42.632;23.298;2023-12-28T06:45:19;1.20;;;1.10;;
13032;SDS011;6583;42.632;23.298;2023-12-28T06:47:51;1.77;;;1.33;;
13032;SDS011;6583;42.632;23.298;2023-12-28T06:50:18;1.60;;;1.30;;
13032;SDS011;6583;42.632;23.298;2023-12-28T06:52:45;2.10;;;1.50;;
13032;SDS011;6583;42.632;23.298;2023-12-28T06:55:11;2.63;;;1.77;;
13032;SDS011;6583;42.632;23.298;2023-12-28T06:57:38;2.73;;;1.70;;
13032;SDS011;6583;42.632;23.298;2023-12-28T07:00:07;4.27;;;2.07;;
13032;SDS011;6583;42.632;23.298;2023-12-28T07:02:34;2.77;;;2.17;;
13032;SDS011;6583;42.632;23.298;2023-12-28T07:05:01;8.90;;;5.20;;
13032;SDS011;6583;42.632;23.298;2023-12-28T07:07:29;7.23;;;4.63;;
13032;SDS011;6583;42.632;23.298;2023-12-28T07:09:55;6.07;;;3.10;;
13032;SDS011;6583;42.632;23.298;2023-12-28T07:12:22;3.73;;;2.30;;
13032;SDS011;6583;42.632;23.298;2023-12-28T07:14:49;4.23;;;3.00;;
13032;SDS011;6583;42.632;23.298;2023-12-28T07:17:17;5.23;;;4.30;;
13032;SDS011;6583;42.632;23.298;2023-12-28T07:19:44;7.83;;;4.40;;
13032;SDS011;6583;42.632;23.298;2023-12-28T07:22:11;7.33;;;5.20;;
13032;SDS011;6583;42.632;23.298;2023-12-28T07:24:37;10.27;;;6.30;;
13032;SDS011;6583;42.632;23.298;2023-12-28T07:27:04;11.47;;;5.87;;
13032;SDS011;6583;42.632;23.298;2023-12-28T07:29:31;14.00;;;7.67;;
13032;SDS011;6583;42.632;23.298;2023-12-28T07:31:58;17.93;;;12.17;;
13032;SDS011;6583;42.632;23.298;2023-12-28T07:34:26;16.23;;;11.30;;
13032;SDS011;6583;42.632;23.298;2023-12-28T07:36:52;19.43;;;14.50;;
13032;SDS011;6583;42.632;23.298;2023-12-28T07:39:19;22.30;;;15.87;;
13032;SDS011;6583;42.632;23.298;2023-12-28T07:41:46;22.03;;;15.23;;
13032;SDS011;6583;42.632;23.298;2023-12-28T07:44:14;22.20;;;16.30;;
13032;SDS011;6583;42.632;23.298;2023-12-28T07:46:41;22.77;;;14.87;;
13032;SDS011;6583;42.632;23.298;2023-12-28T07:49:08;28.50;;;19.43;;
13032;SDS011;6583;42.632;23.298;2023-12-28T07:51:36;26.50;;;19.23;;
13032;SDS011;6583;42.632;23.298;2023-12-28T07:54:03;22.23;;;16.13;;
13032;SDS011;6583;42.632;23.298;2023-12-28T07:56:29;26.47;;;17.90;;
13032;SDS011;6583;42.632;23.298;2023-12-28T07:58:56;23.93;;;16.80;;
13032;SDS011;6583;42.632;23.298;2023-12-28T08:01:22;32.07;;;21.03;;
13032;SDS011;6583;42.632;23.298;2023-12-28T08:03:50;32.90;;;23.03;;
13032;SDS011;6583;42.632;23.298;2023-12-28T08:06:16;27.97;;;19.80;;
13032;SDS011;6583;42.632;23.298;2023-12-28T08:08:44;29.53;;;21.13;;
13032;SDS011;6583;42.632;23.298;2023-12-28T08:11:11;25.00;;;18.53;;
13032;SDS011;6583;42.632;23.298;2023-12-28T08:13:38;27.77;;;20.47;;
13032;SDS011;6583;42.632;23.298;2023-12-28T08:16:05;26.53;;;20.23;;
13032;SDS011;6583;42.632;23.298;2023-12-28T08:18:32;27.20;;;20.80;;
13032;SDS011;6583;42.632;23.298;2023-12-28T08:20:59;31.00;;;22.07;;
13032;SDS011;6583;42.632;23.298;2023-12-28T08:23:26;27.33;;;20.90;;
13032;SDS011;6583;42.632;23.298;2023-12-28T08:25:54;27.10;;;20.90;;
13032;SDS011;6583;42.632;23.298;2023-12-28T08:28:20;29.20;;;21.80;;
13032;SDS011;6583;42.632;23.298;2023-12-28T08:30:48;27.57;;;21.80;;
13032;SDS011;6583;42.632;23.298;2023-12-28T08:33:15;30.20;;;21.60;;
13032;SDS011;6583;42.632;23.298;2023-12-28T08:35:41;28.33;;;22.17;;
13032;SDS011;6583;42.632;23.298;2023-12-28T08:38:08;30.00;;;22.40;;
13032;SDS011;6583;42.632;23.298;2023-12-28T08:40:34;28.80;;;21.97;;
13032;SDS011;6583;42.632;23.298;2023-12-28T08:43:03;29.67;;;22.63;;
13032;SDS011;6583;42.632;23.298;2023-12-28T08:45:29;30.80;;;22.63;;
13032;SDS011;6583;42.632;23.298;2023-12-28T08:47:56;31.03;;;23.67;;
13032;SDS011;6583;42.632;23.298;2023-12-28T08:50:23;30.80;;;23.90;;
13032;SDS011;6583;42.632;23.298;2023-12-28T08:52:49;27.27;;;21.93;;
13032;SDS011;6583;42.632;23.298;2023-12-28T08:55:16;29.43;;;23.23;;
13032;SDS011;6583;42.632;23.298;2023-12-28T08:57:43;31.27;;;22.60;;
13032;SDS011;6583;42.632;23.298;2023-12-28T09:00:12;32.30;;;23.07;;
13032;SDS011;6583;42.632;23.298;2023-12-28T09:02:40;29.67;;;23.27;;
13032;SDS011;6583;42.632;23.298;2023-12-28T09:05:07;31.33;;;24.63;;
13032;SDS011;6583;42.632;23.298;2023-12-28T09:07:33;32.20;;;24.00;;
13032;SDS011;6583;42.632;23.298;2023-12-28T09:10:01;33.17;;;23.87;;
13032;SDS011;6583;42.632;23.298;2023-12-28T09:12:28;31.73;;;24.00;;
13032;SDS011;6583;42.632;23.298;2023-12-28T09:14:55;33.97;;;24.20;;
13032;SDS011;6583;42.632;23.298;2023-12-28T09:17:23;34.03;;;24.50;;
13032;SDS011;6583;42.632;23.298;2023-12-28T09:19:50;33.10;;;24.83;;
13032;SDS011;6583;42.632;23.298;2023-12-28T09:22:16;32.33;;;24.80;;
13032;SDS011;6583;42.632;23.298;2023-12-28T09:24:43;33.13;;;23.77;;
13032;SDS011;6583;42.632;23.298;2023-12-28T09:27:10;29.73;;;21.77;;
13032;SDS011;6583;42.632;23.298;2023-12-28T09:29:37;31.93;;;22.63;;
13032;SDS011;6583;42.632;23.298;2023-12-28T09:32:04;33.30;;;25.90;;
13032;SDS011;6583;42.632;23.298;2023-12-28T09:34:32;33.30;;;25.50;;
13032;SDS011;6583;42.632;23.298;2023-12-28T09:36:59;34.90;;;25.00;;
13032;SDS011;6583;42.632;23.298;2023-12-28T09:39:26;31.00;;;23.90;;
13032;SDS011;6583;42.632;23.298;2023-12-28T09:41:54;35.13;;;24.00;;
13032;SDS011;6583;42.632;23.298;2023-12-28T09:44:25;29.70;;;22.43;;
13032;SDS011;6583;42.632;23.298;2023-12-28T09:46:52;28.53;;;22.00;;
13032;SDS011;6583;42.632;23.298;2023-12-28T09:49:21;29.63;;;22.20;;
13032;SDS011;6583;42.632;23.298;2023-12-28T09:51:49;29.70;;;22.47;;
13032;SDS011;6583;42.632;23.298;2023-12-28T09:54:16;32.90;;;23.77;;
13032;SDS011;6583;42.632;23.298;2023-12-28T09:56:43;32.67;;;23.43;;
13032;SDS011;6583;42.632;23.298;2023-12-28T09:59:12;27.83;;;22.67;;
13032;SDS011;6583;42.632;23.298;2023-12-28T10:01:41;32.10;;;22.80;;
13032;SDS011;6583;42.632;23.298;2023-12-28T10:04:09;32.73;;;23.10;;
13032;SDS011;6583;42.632;23.298;2023-12-28T10:06:36;35.67;;;23.47;;
13032;SDS011;6583;42.632;23.298;2023-12-28T10:09:05;29.30;;;23.27;;
13032;SDS011;6583;42.632;23.298;2023-12-28T10:11:33;32.50;;;23.33;;
13032;SDS011;6583;42.632;23.298;2023-12-28T10:13:59;29.50;;;22.13;;
13032;SDS011;6583;42.632;23.298;2023-12-28T10:16:27;27.40;;;22.07;;
13032;SDS011;6583;42.632;23.298;2023-12-28T10:18:55;28.43;;;22.13;;
13032;SDS011;6583;42.632;23.298;2023-12-28T10:21:23;26.67;;;21.13;;
13032;SDS011;6583;42.632;23.298;2023-12-28T10:23:49;28.47;;;21.53;;
13032;SDS011;6583;42.632;23.298;2023-12-28T10:26:18;28.07;;;19.63;;
13032;SDS011;6583;42.632;23.298;2023-12-28T10:28:45;25.23;;;20.27;;
13032;SDS011;6583;42.632;23.298;2023-12-28T10:31:12;29.30;;;19.30;;
13032;SDS011;6583;42.632;23.298;2023-12-28T10:33:41;25.23;;;19.37;;
13032;SDS011;6583;42.632;23.298;2023-12-28T10:36:10;27.83;;;19.80;;
13032;SDS011;6583;42.632;23.298;2023-12-28T10:38:41;30.07;;;20.80;;
13032;SDS011;6583;42.632;23.298;2023-12-28T10:41:11;28.17;;;19.20;;
13032;SDS011;6583;42.632;23.298;2023-12-28T10:43:43;24.87;;;19.00;;
13032;SDS011;6583;42.632;23.298;2023-12-28T10:46:13;26.73;;;18.83;;
13032;SDS011;6583;42.632;23.298;2023-12-28T10:48:48;26.83;;;18.50;;
13032;SDS011;6583;42.632;23.298;2023-12-28T10:51:19;22.30;;;17.93;;
13032;SDS011;6583;42.632;23.298;2023-12-28T10:53:48;25.57;;;18.57;;
13032;SDS011;6583;42.632;23.298;2023-12-28T10:56:25;24.70;;;18.00;;
13032;SDS011;6583;42.632;23.298;2023-12-28T10:59:01;27.10;;;17.87;;
13032;SDS011;6583;42.632;23.298;2023-12-28T11:01:37;26.37;;;18.33;;
13032;SDS011;6583;42.632;23.298;2023-12-28T11:04:07;26.97;;;19.00;;
13032;SDS011;6583;42.632;23.298;2023-12-28T11:06:38;27.87;;;18.67;;
13032;SDS011;6583;42.632;23.298;2023-12-28T11:09:07;25.57;;;19.20;;
13032;SDS011;6583;42.632;23.298;2023-12-28T11:11:35;29.80;;;19.80;;
13032;SDS011;6583;42.632;23.298;2023-12-28T11:14:04;25.60;;;20.10;;
13032;SDS011;6583;42.632;23.298;2023-12-28T11:16:31;25.87;;;20.83;;
13032;SDS011;6583;42.632;23.298;2023-12-28T11:19:00;27.90;;;20.30;;
13032;SDS011;6583;42.632;23.298;2023-12-28T11:21:27;30.30;;;21.20;;
13032;SDS011;6583;42.632;23.298;2023-12-28T11:23:54;29.37;;;20.90;;
13032;SDS011;6583;42.632;23.298;2023-12-28T11:26:22;30.37;;;19.97;;
13032;SDS011;6583;42.632;23.298;2023-12-28T11:28:49;25.07;;;18.67;;
13032;SDS011;6583;42.632;23.298;2023-12-28T11:31:18;30.70;;;20.87;;
13032;SDS011;6583;42.632;23.298;2023-12-28T11:33:45;29.67;;;22.37;;
13032;SDS011;6583;42.632;23.298;2023-12-28T11:36:12;28.93;;;22.23;;
13032;SDS011;6583;42.632;23.298;2023-12-28T11:38:49;28.57;;;21.90;;
13032;SDS011;6583;42.632;23.298;2023-12-28T11:41:19;31.47;;;22.03;;
13032;SDS011;6583;42.632;23.298;2023-12-28T11:43:51;28.50;;;20.40;;
13032;SDS011;6583;42.632;23.298;2023-12-28T11:46:21;25.23;;;20.20;;
13032;SDS011;6583;42.632;23.298;2023-12-28T11:48:48;30.77;;;21.17;;
13032;SDS011;6583;42.632;23.298;2023-12-28T11:51:14;23.57;;;16.40;;
13032;SDS011;6583;42.632;23.298;2023-12-28T11:53:42;23.00;;;15.83;;
13032;SDS011;6583;42.632;23.298;2023-12-28T11:56:11;17.53;;;14.30;;
13032;SDS011;6583;42.632;23.298;2023-12-28T11:58:42;19.20;;;14.50;;
13032;SDS011;6583;42.632;23.298;2023-12-28T12:01:11;21.63;;;16.00;;
13032;SDS011;6583;42.632;23.298;2023-12-28T12:03:39;23.17;;;16.57;;
13032;SDS011;6583;42.632;23.298;2023-12-28T12:06:06;23.67;;;16.70;;
13032;SDS011;6583;42.632;23.298;2023-12-28T12:08:33;22.57;;;16.57;;
13032;SDS011;6583;42.632;23.298;2023-12-28T12:11:00;23.93;;;15.23;;
13032;SDS011;6583;42.632;23.298;2023-12-28T12:13:28;21.27;;;15.43;;
13032;SDS011;6583;42.632;23.298;2023-12-28T12:15:55;21.73;;;15.80;;
13032;SDS011;6583;42.632;23.298;2023-12-28T12:18:22;20.00;;;16.40;;
13032;SDS011;6583;42.632;23.298;2023-12-28T12:20:50;23.03;;;16.13;;
13032;SDS011;6583;42.632;23.298;2023-12-28T12:23:17;19.97;;;15.67;;
13032;SDS011;6583;42.632;23.298;2023-12-28T12:25:44;19.77;;;13.33;;
13032;SDS011;6583;42.632;23.298;2023-12-28T12:28:11;12.90;;;8.30;;
13032;SDS011;6583;42.632;23.298;2023-12-28T12:30:37;12.03;;;6.93;;
13032;SDS011;6583;42.632;23.298;2023-12-28T12:33:04;8.77;;;5.23;;
13032;SDS011;6583;42.632;23.298;2023-12-28T12:35:31;8.17;;;5.90;;
13032;SDS011;6583;42.632;23.298;2023-12-28T12:38:00;9.67;;;7.03;;
13032;SDS011;6583;42.632;23.298;2023-12-28T12:40:28;8.17;;;5.83;;
13032;SDS011;6583;42.632;23.298;2023-12-28T12:42:55;8.73;;;7.40;;
13032;SDS011;6583;42.632;23.298;2023-12-28T12:45:22;9.90;;;6.97;;
13032;SDS011;6583;42.632;23.298;2023-12-28T12:47:51;7.57;;;6.10;;
13032;SDS011;6583;42.632;23.298;2023-12-28T12:50:18;9.83;;;6.23;;
13032;SDS011;6583;42.632;23.298;2023-12-28T12:52:44;8.13;;;5.30;;
13032;SDS011;6583;42.632;23.298;2023-12-28T12:55:12;7.13;;;4.37;;
13032;SDS011;6583;42.632;23.298;2023-12-28T12:57:39;6.47;;;4.57;;
13032;SDS011;6583;42.632;23.298;2023-12-28T13:00:08;5.73;;;4.13;;
13032;SDS011;6583;42.632;23.298;2023-12-28T13:02:36;6.37;;;4.00;;
13032;SDS011;6583;42.632;23.298;2023-12-28T13:05:03;6.60;;;3.37;;
13032;SDS011;6583;42.632;23.298;2023-12-28T13:07:31;5.63;;;4.47;;
13032;SDS011;6583;42.632;23.298;2023-12-28T13:09:58;7.17;;;4.90;;
13032;SDS011;6583;42.632;23.298;2023-12-28T13:12:26;7.90;;;5.63;;
13032;SDS011;6583;42.632;23.298;2023-12-28T13:14:52;8.20;;;5.27;;
13032;SDS011;6583;42.632;23.298;2023-12-28T13:17:19;7.27;;;5.30;;
13032;SDS011;6583;42.632;23.298;2023-12-28T13:19:46;7.50;;;4.50;;
13032;SDS011;6583;42.632;23.298;2023-12-28T13:22:12;7.23;;;5.20;;
13032;SDS011;6583;42.632;23.298;2023-12-28T13:24:39;6.77;;;4.33;;
13032;SDS011;6583;42.632;23.298;2023-12-28T13:27:05;8.63;;;5.00;;
13032;SDS011;6583;42.632;23.298;2023-12-28T13:29:33;8.20;;;4.90;;
13032;SDS011;6583;42.632;23.298;2023-12-28T13:32:00;6.70;;;4.47;;
13032;SDS011;6583;42.632;23.298;2023-12-28T13:34:27;6.97;;;4.17;;
13032;SDS011;6583;42.632;23.298;2023-12-28T13:36:53;4.87;;;3.50;;
13032;SDS011;6583;42.632;23.298;2023-12-28T13:39:20;4.57;;;2.67;;
13032;SDS011;6583;42.632;23.298;2023-12-28T13:41:47;3.90;;;2.47;;
13032;SDS011;6583;42.632;23.298;2023-12-28T13:44:13;4.43;;;3.43;;
13032;SDS011;6583;42.632;23.298;2023-12-28T13:46:41;4.07;;;3.07;;
13032;SDS011;6583;42.632;23.298;2023-12-28T13:49:08;5.07;;;3.37;;
13032;SDS011;6583;42.632;23.298;2023-12-28T13:51:35;6.07;;;4.20;;
13032;SDS011;6583;42.632;23.298;2023-12-28T13:54:02;3.33;;;2.90;;
13032;SDS011;6583;42.632;23.298;2023-12-28T13:56:28;2.23;;;2.00;;
13032;SDS011;6583;42.632;23.298;2023-12-28T13:58:55;2.27;;;1.40;;
13032;SDS011;6583;42.632;23.298;2023-12-28T14:01:21;1.77;;;1.23;;
13032;SDS011;6583;42.632;23.298;2023-12-28T14:03:49;1.10;;;1.00;;
13032;SDS011;6583;42.632;23.298;2023-12-28T14:06:17;1.87;;;1.03;;
13032;SDS011;6583;42.632;23.298;2023-12-28T14:08:44;2.87;;;1.40;;
13032;SDS011;6583;42.632;23.298;2023-12-28T14:11:11;1.60;;;1.20;;
13032;SDS011;6583;42.632;23.298;2023-12-28T14:13:37;2.33;;;1.17;;
13032;SDS011;6583;42.632;23.298;2023-12-28T14:16:04;1.57;;;1.10;;
13032;SDS011;6583;42.632;23.298;2023-12-28T14:18:31;1.10;;;1.00;;
13032;SDS011;6583;42.632;23.298;2023-12-28T14:20:59;1.47;;;1.10;;
13032;SDS011;6583;42.632;23.298;2023-12-28T14:23:26;3.00;;;1.10;;
13032;SDS011;6583;42.632;23.298;2023-12-28T14:25:53;1.70;;;1.10;;
13032;SDS011;6583;42.632;23.298;2023-12-28T14:28:21;1.37;;;1.27;;
13032;SDS011;6583;42.632;23.298;2023-12-28T14:30:51;1.77;;;1.20;;
13032;SDS011;6583;42.632;23.298;2023-12-28T14:33:18;1.57;;;1.07;;
13032;SDS011;6583;42.632;23.298;2023-12-28T14:35:46;1.00;;;0.90;;
13032;SDS011;6583;42.632;23.298;2023-12-28T14:38:15;3.00;;;1.10;;
13032;SDS011;6583;42.632;23.298;2023-12-28T14:40:42;1.33;;;0.93;;
13032;SDS011;6583;42.632;23.298;2023-12-28T14:43:09;0.87;;;0.70;;